Coulee, North Dakota
Current Conditions -  °F | °C
As of 9:35 PM on Saturday 24 Jan 2015 (Local Time) from K08D Reporting Station
Overcast Overcast  
Wind Chill: 25°   Ceiling: 1700
Heat Index: 36°   Visibility: 10mi
Dew Point: 36°   Wind: 18mph
Humidity: 100%   Direction: 320°NW
Pressure: 29.81"   Gusts: 25mph
Location:  48.4598°N, 101.907°W
Report Text: K08D 250335Z AUTO 32016G22KT 10SM BKN017 OVC026 02/02 A2981 RMK AO2
Loading
Personal Weather Stations






























Interactive Weather Map New forecast layout! Learn more

10-Day Weather Forecast

Advertisements
Track Severe Weather on mobile